Time;durP1;ratioP1;P1;durP2;ratioP2;P2;SDS_P1;SDS_P2;PMS_P1;PMS_P2;Temp;Humidity;BMP_temperature;BMP_pressure;BME280_temperature;BME280_humidity;BME280_pressure;Samples;Min_cycle;Max_cycle;Signal;HPM_P1;HPM_P2
2022/02/22 00:02:14;;;;;;;14.77;8.97;;;6.40;99.90;;;;;;5012202;28;20249;-66
2022/02/22 00:04:43;;;;;;;15.73;9.13;;;6.30;99.90;;;;;;5012252;28;20180;-66
2022/02/22 00:07:09;;;;;;;13.70;9.40;;;6.30;99.90;;;;;;5012043;28;20183;-66
2022/02/22 00:09:35;;;;;;;16.43;8.87;;;6.20;99.90;;;;;;5012138;28;20196;-66
2022/02/22 00:12:01;;;;;;;22.07;9.23;;;6.20;99.90;;;;;;5010372;28;20184;-66
2022/02/22 00:14:27;;;;;;;10.00;8.13;;;6.10;99.90;;;;;;5011852;28;20625;-66
2022/02/22 00:16:55;;;;;;;12.33;8.87;;;6.10;99.90;;;;;;5011583;28;20495;-66
2022/02/22 00:19:28;;;;;;;10.43;8.83;;;6.10;99.90;;;;;;5012040;28;20234;-66
2022/02/22 00:21:54;;;;;;;21.07;9.50;;;6.00;99.90;;;;;;5011676;28;20208;-66
2022/02/22 00:24:21;;;;;;;19.53;9.00;;;6.10;99.90;;;;;;5011897;28;20184;-67
2022/02/22 00:26:47;;;;;;;13.63;9.10;;;6.10;99.90;;;;;;5011554;28;20187;-66
2022/02/22 00:29:13;;;;;;;14.87;8.40;;;6.10;99.90;;;;;;5010559;28;20606;-67
2022/02/22 00:31:39;;;;;;;20.80;9.60;;;6.10;99.90;;;;;;5011576;28;20195;-66
2022/02/22 00:34:05;;;;;;;13.20;9.20;;;6.10;99.90;;;;;;5011545;28;20242;-67
2022/02/22 00:36:33;;;;;;;10.00;8.00;;;6.10;99.90;;;;;;5012466;28;20630;-66
2022/02/22 00:38:59;;;;;;;23.93;9.37;;;6.10;99.90;;;;;;5012659;28;20168;-66
2022/02/22 00:41:24;;;;;;;19.30;10.93;;;6.10;99.90;;;;;;5011551;28;20203;-65
2022/02/22 00:43:50;;;;;;;18.53;8.83;;;6.10;99.90;;;;;;5011181;28;20196;-65
2022/02/22 00:46:16;;;;;;;20.07;8.97;;;6.00;99.90;;;;;;5011449;28;20630;-65
2022/02/22 00:48:41;;;;;;;16.43;9.93;;;6.00;99.90;;;;;;5010238;28;20184;-66
2022/02/22 00:51:07;;;;;;;9.00;8.10;;;6.00;99.90;;;;;;5011583;28;20204;-66
2022/02/22 00:53:33;;;;;;;17.53;9.20;;;6.10;99.90;;;;;;5011350;28;20220;-65
2022/02/22 00:55:58;;;;;;;24.43;10.53;;;6.10;99.90;;;;;;5011774;28;20172;-66
2022/02/22 00:58:24;;;;;;;15.50;8.60;;;6.20;99.90;;;;;;5010099;28;20231;-65
2022/02/22 01:00:50;;;;;;;11.43;8.27;;;6.20;99.90;;;;;;5011314;28;20592;-66
2022/02/22 01:03:15;;;;;;;18.63;8.83;;;6.20;99.90;;;;;;5011116;28;20179;-66
2022/02/22 01:05:41;;;;;;;19.93;8.50;;;6.20;99.90;;;;;;5011779;28;20226;-66
2022/02/22 01:08:07;;;;;;;15.10;9.00;;;6.20;99.90;;;;;;5011678;28;20259;-66
2022/02/22 01:10:33;;;;;;;20.93;8.53;;;6.20;99.90;;;;;;5015409;28;20196;-66
2022/02/22 01:12:59;;;;;;;23.60;8.80;;;6.10;99.90;;;;;;5014497;28;20204;-66
2022/02/22 01:15:24;;;;;;;17.03;8.97;;;6.10;99.90;;;;;;5015645;28;20613;-66
2022/02/22 01:17:50;;;;;;;21.57;9.97;;;6.10;99.90;;;;;;5013656;28;20184;-67
2022/02/22 01:20:16;;;;;;;21.77;10.77;;;6.00;99.90;;;;;;5013994;28;20253;-67
2022/02/22 01:22:42;;;;;;;15.50;8.83;;;5.90;99.90;;;;;;5014638;28;20187;-65
2022/02/22 01:25:09;;;;;;;24.53;10.10;;;5.80;99.90;;;;;;5015296;28;20180;-66
2022/02/22 01:27:36;;;;;;;21.53;9.93;;;5.70;99.90;;;;;;5015193;28;20199;-66
2022/02/22 01:30:03;;;;;;;15.60;9.20;;;5.70;99.90;;;;;;5013352;28;20693;-66
2022/02/22 01:32:29;;;;;;;9.93;7.43;;;5.60;99.90;;;;;;4995128;28;20172;-66
2022/02/22 01:34:54;;;;;;;22.73;9.53;;;5.50;99.90;;;;;;4995084;28;20209;-66
2022/02/22 01:37:20;;;;;;;22.23;9.67;;;5.50;99.90;;;;;;5013445;28;20177;-65
2022/02/22 01:39:46;;;;;;;25.83;9.53;;;5.40;99.90;;;;;;5014849;28;20207;-65
2022/02/22 01:42:11;;;;;;;10.63;7.80;;;5.40;99.90;;;;;;5013469;28;20183;-66
2022/02/22 01:44:37;;;;;;;19.27;8.47;;;5.40;99.90;;;;;;5014669;28;20231;-68
2022/02/22 01:47:04;;;;;;;22.07;10.70;;;5.40;99.90;;;;;;5014552;28;20186;-66
2022/02/22 01:49:31;;;;;;;18.67;9.40;;;5.40;99.90;;;;;;5014747;28;20204;-66
2022/02/22 01:51:57;;;;;;;13.23;9.03;;;5.40;99.90;;;;;;5014190;28;20267;-67
2022/02/22 01:54:25;;;;;;;14.87;8.83;;;5.50;99.90;;;;;;5015085;28;20228;-66
2022/02/22 01:56:52;;;;;;;21.63;8.73;;;5.60;99.90;;;;;;5014257;28;20652;-67
2022/02/22 01:59:19;;;;;;;21.30;10.33;;;5.70;99.90;;;;;;5031237;28;20180;-65
2022/02/22 02:01:46;;;;;;;21.87;9.97;;;5.80;99.90;;;;;;5034300;28;20576;-67
2022/02/22 02:04:11;;;;;;;34.50;9.97;;;5.80;99.90;;;;;;5022936;28;20180;-67
2022/02/22 02:06:38;;;;;;;15.80;8.57;;;5.90;99.90;;;;;;5014412;28;20693;-67
2022/02/22 02:09:09;;;;;;;17.83;9.17;;;5.90;99.90;;;;;;5014090;28;20662;-66
2022/02/22 02:12:08;;;;;;;15.13;8.37;;;5.90;99.90;;;;;;5014161;28;20192;-66
2022/02/22 02:14:33;;;;;;;19.43;9.03;;;5.80;99.90;;;;;;5011964;28;20236;-66
2022/02/22 02:16:59;;;;;;;21.13;8.80;;;5.80;99.90;;;;;;5013925;28;20537;-65
2022/02/22 02:19:25;;;;;;;27.20;10.50;;;5.80;99.90;;;;;;5014082;28;20554;-66
2022/02/22 02:21:51;;;;;;;18.73;9.50;;;5.70;99.90;;;;;;5013208;28;20222;-66
2022/02/22 02:24:17;;;;;;;13.80;7.73;;;5.70;99.90;;;;;;5013971;28;20242;-66
2022/02/22 02:26:43;;;;;;;15.07;9.53;;;5.60;99.90;;;;;;5013659;28;20278;-67
2022/02/22 02:29:10;;;;;;;10.53;7.90;;;5.60;99.90;;;;;;5013848;28;20180;-65
2022/02/22 02:31:37;;;;;;;13.63;9.03;;;5.50;99.90;;;;;;5199474;22;20685;-68
2022/02/22 02:34:04;;;;;;;15.73;9.50;;;5.50;99.90;;;;;;5012399;28;20208;-68
2022/02/22 02:36:35;;;;;;;19.47;8.47;;;5.40;99.90;;;;;;5007227;28;20671;-68
2022/02/22 02:39:03;;;;;;;18.17;10.07;;;5.40;99.90;;;;;;4994413;28;20219;-68
2022/02/22 02:41:28;;;;;;;26.87;8.83;;;5.40;99.90;;;;;;4992908;28;20690;-68
2022/02/22 02:44:00;;;;;;;14.90;9.40;;;5.40;99.90;;;;;;4994058;28;20263;-68
2022/02/22 02:46:26;;;;;;;19.33;10.73;;;5.40;99.90;;;;;;4994225;28;20177;-68
2022/02/22 02:48:53;;;;;;;19.50;8.80;;;5.30;99.90;;;;;;4992857;28;20541;-68
2022/02/22 02:51:18;;;;;;;25.70;9.93;;;5.30;99.90;;;;;;4992742;28;20201;-68
2022/02/22 02:53:44;;;;;;;11.97;9.37;;;5.20;99.90;;;;;;4992463;28;20200;-68
2022/02/22 02:56:10;;;;;;;17.60;10.10;;;5.20;99.90;;;;;;4994043;28;20211;-68
2022/02/22 02:58:35;;;;;;;19.03;9.03;;;5.30;99.90;;;;;;4994081;28;20176;-68
2022/02/22 03:01:01;;;;;;;23.80;9.37;;;5.30;99.90;;;;;;4993271;28;20209;-68
2022/02/22 03:03:26;;;;;;;19.73;9.30;;;5.20;99.90;;;;;;4992397;28;20745;-68
2022/02/22 03:05:52;;;;;;;16.27;8.13;;;5.20;99.90;;;;;;4990604;28;20181;-68
2022/02/22 03:08:17;;;;;;;25.10;10.20;;;5.10;99.90;;;;;;4992753;28;20172;-68
2022/02/22 03:10:43;;;;;;;20.43;9.23;;;5.10;99.90;;;;;;4992271;28;20232;-68
2022/02/22 03:13:09;;;;;;;10.53;9.43;;;5.00;99.90;;;;;;4993480;28;20255;-68
2022/02/22 03:15:34;;;;;;;18.20;9.33;;;4.90;99.90;;;;;;4993241;28;20398;-68
2022/02/22 03:18:01;;;;;;;15.17;8.67;;;4.90;99.90;;;;;;4993942;28;20173;-68
2022/02/22 03:20:26;;;;;;;15.33;8.07;;;4.80;99.90;;;;;;4993494;28;20663;-68
2022/02/22 03:22:53;;;;;;;22.70;9.20;;;4.70;99.90;;;;;;4991935;28;20183;-68
2022/02/22 03:25:19;;;;;;;15.13;9.77;;;4.70;99.90;;;;;;4991794;28;20272;-68
2022/02/22 03:27:45;;;;;;;27.80;9.10;;;4.70;99.90;;;;;;4991870;28;20263;-68
2022/02/22 03:30:11;;;;;;;11.87;8.50;;;4.70;99.90;;;;;;4992985;28;20203;-68
2022/02/22 03:32:36;;;;;;;22.37;10.60;;;4.60;99.90;;;;;;4990955;28;20177;-68
2022/02/22 03:35:02;;;;;;;18.47;9.50;;;4.60;99.90;;;;;;4993001;28;20216;-68
2022/02/22 03:37:28;;;;;;;8.67;7.87;;;4.60;99.90;;;;;;4992857;28;20173;-68
2022/02/22 03:39:54;;;;;;;28.47;10.10;;;4.60;99.90;;;;;;4992214;28;20199;-68
2022/02/22 03:42:19;;;;;;;18.43;10.03;;;4.60;99.90;;;;;;4993076;28;20172;-68
2022/02/22 03:44:45;;;;;;;20.67;10.17;;;4.70;99.90;;;;;;4990869;28;20228;-68
2022/02/22 03:47:10;;;;;;;29.67;8.20;;;4.70;99.90;;;;;;4991991;28;20268;-68
2022/02/22 03:49:36;;;;;;;18.93;8.57;;;4.80;99.90;;;;;;4991763;28;20188;-68
2022/02/22 03:52:02;;;;;;;19.87;11.27;;;4.80;99.90;;;;;;4993235;28;20192;-68
2022/02/22 03:54:28;;;;;;;29.37;11.30;;;4.80;99.90;;;;;;4992844;28;20570;-68
2022/02/22 03:56:53;;;;;;;22.90;9.47;;;4.80;99.90;;;;;;4991867;28;20206;-68
2022/02/22 03:59:19;;;;;;;27.77;10.47;;;4.70;99.90;;;;;;4992220;28;20177;-68
2022/02/22 04:01:45;;;;;;;17.60;9.50;;;4.70;99.90;;;;;;4992266;28;20236;-68
2022/02/22 04:04:11;;;;;;;20.27;9.47;;;4.60;99.90;;;;;;4992618;28;20208;-68
2022/02/22 04:06:37;;;;;;;23.70;9.73;;;4.50;99.90;;;;;;4991321;28;20654;-68
2022/02/22 04:09:03;;;;;;;22.20;9.90;;;4.50;99.90;;;;;;4992529;28;20327;-68
2022/02/22 04:11:28;;;;;;;21.17;9.00;;;4.50;99.90;;;;;;4991362;28;20220;-68
2022/02/22 04:13:54;;;;;;;16.90;8.70;;;4.60;99.90;;;;;;4992127;28;20581;-68
2022/02/22 04:16:19;;;;;;;31.67;10.07;;;4.50;99.90;;;;;;4992981;28;20177;-68
2022/02/22 04:18:45;;;;;;;16.07;8.47;;;4.50;99.90;;;;;;4991131;28;20180;-68
2022/02/22 04:21:11;;;;;;;19.43;8.70;;;4.50;99.90;;;;;;4992890;28;20269;-68
2022/02/22 04:23:36;;;;;;;20.83;10.13;;;4.40;99.90;;;;;;4992184;28;20652;-68
2022/02/22 04:26:02;;;;;;;28.57;10.57;;;4.40;99.90;;;;;;4992662;28;20173;-68
2022/02/22 04:28:28;;;;;;;17.67;8.87;;;4.50;99.90;;;;;;4991032;28;20602;-68
2022/02/22 04:30:53;;;;;;;19.80;8.90;;;4.50;99.90;;;;;;4990754;28;20227;-68
2022/02/22 04:33:19;;;;;;;24.73;10.53;;;4.50;99.90;;;;;;4992133;28;20208;-68
2022/02/22 04:35:44;;;;;;;11.27;9.83;;;4.50;99.90;;;;;;4992260;28;20255;-68
2022/02/22 04:38:10;;;;;;;26.93;9.93;;;4.50;99.90;;;;;;4992221;28;20258;-68
2022/02/22 04:40:36;;;;;;;18.43;9.17;;;4.50;99.90;;;;;;4991121;28;20259;-68
2022/02/22 04:43:01;;;;;;;27.37;9.53;;;4.50;99.90;;;;;;4991371;28;20208;-68
2022/02/22 04:45:27;;;;;;;25.97;9.10;;;4.50;99.90;;;;;;4990886;28;20722;-68
2022/02/22 04:47:55;;;;;;;21.53;9.07;;;4.40;99.90;;;;;;4990902;28;20542;-68
2022/02/22 04:50:22;;;;;;;23.57;9.07;;;4.40;99.90;;;;;;4991014;28;20561;-68
2022/02/22 04:52:48;;;;;;;16.83;9.97;;;4.40;99.90;;;;;;4989985;28;20181;-68
2022/02/22 04:55:14;;;;;;;22.17;8.70;;;4.30;99.90;;;;;;4989677;28;20212;-68
2022/02/22 04:57:40;;;;;;;34.00;10.50;;;4.30;99.90;;;;;;4971303;28;20573;-68
2022/02/22 05:00:10;;;;;;;20.50;8.43;;;4.30;99.90;;;;;;4971401;28;20209;-68
2022/02/22 05:02:35;;;;;;;14.70;9.43;;;4.30;99.90;;;;;;4989604;28;20188;-68
2022/02/22 05:05:01;;;;;;;27.23;9.87;;;4.20;99.90;;;;;;4990634;28;20195;-69
2022/02/22 05:07:26;;;;;;;16.10;8.10;;;4.20;99.90;;;;;;4990744;28;20188;-68
2022/02/22 05:09:52;;;;;;;31.70;10.17;;;4.20;99.90;;;;;;4991853;28;20188;-67
2022/02/22 05:12:18;;;;;;;28.83;9.20;;;4.10;99.90;;;;;;4990353;28;20188;-67
2022/02/22 05:14:43;;;;;;;31.80;9.20;;;4.20;99.90;;;;;;4991695;28;20208;-67
2022/02/22 05:17:09;;;;;;;15.77;8.73;;;4.10;99.90;;;;;;4991751;28;20185;-67
2022/02/22 05:19:35;;;;;;;26.60;10.57;;;4.10;99.90;;;;;;4992010;28;20208;-67
2022/02/22 05:22:00;;;;;;;18.03;8.43;;;4.00;99.90;;;;;;4991701;28;20201;-69
2022/02/22 05:24:26;;;;;;;22.00;8.97;;;4.00;99.90;;;;;;4992002;28;20263;-67
2022/02/22 05:26:52;;;;;;;20.63;9.77;;;4.00;99.90;;;;;;4991430;28;20263;-67
2022/02/22 05:29:17;;;;;;;23.13;8.93;;;4.00;99.90;;;;;;4991427;28;20177;-67
2022/02/22 05:31:43;;;;;;;17.93;10.40;;;4.00;99.90;;;;;;4991742;28;20247;-68
2022/02/22 05:34:09;;;;;;;21.97;9.23;;;4.00;99.90;;;;;;4991498;28;20295;-68
2022/02/22 05:36:35;;;;;;;18.43;8.17;;;4.00;99.90;;;;;;4991937;28;20193;-68
2022/02/22 05:39:00;;;;;;;20.67;9.77;;;4.00;99.90;;;;;;4991857;28;20588;-68
2022/02/22 05:41:26;;;;;;;27.53;9.60;;;4.00;99.90;;;;;;4991651;28;20200;-68
2022/02/22 05:43:52;;;;;;;33.17;11.83;;;4.00;99.90;;;;;;4991587;28;20180;-68
2022/02/22 05:46:18;;;;;;;24.40;9.97;;;4.00;99.90;;;;;;4991545;28;20220;-68
2022/02/22 05:48:44;;;;;;;21.30;9.70;;;3.90;99.90;;;;;;4991093;28;20583;-68
2022/02/22 05:51:10;;;;;;;24.43;10.83;;;3.90;99.90;;;;;;4991258;28;20228;-68
2022/02/22 05:53:36;;;;;;;22.07;9.23;;;3.90;99.90;;;;;;4990706;28;20201;-68
2022/02/22 05:56:03;;;;;;;18.57;9.23;;;3.80;99.90;;;;;;4991909;28;20277;-68
2022/02/22 05:58:29;;;;;;;19.33;9.97;;;3.80;99.90;;;;;;4995378;28;20173;-68
2022/02/22 06:00:54;;;;;;;23.03;10.93;;;3.80;99.90;;;;;;4993886;28;20574;-68
2022/02/22 06:03:20;;;;;;;24.00;8.90;;;3.80;99.90;;;;;;4993326;28;20185;-68
2022/02/22 06:05:46;;;;;;;25.17;9.63;;;3.80;99.90;;;;;;4993825;28;20650;-68
2022/02/22 06:08:11;;;;;;;24.63;8.80;;;3.70;99.90;;;;;;4994626;28;20376;-68
2022/02/22 06:10:37;;;;;;;28.77;11.97;;;3.70;99.90;;;;;;4993691;28;20678;-68
2022/02/22 06:13:03;;;;;;;32.77;9.50;;;3.70;99.90;;;;;;4994343;28;20177;-68
2022/02/22 06:15:28;;;;;;;25.07;9.37;;;3.70;99.90;;;;;;4994692;28;20697;-68
2022/02/22 06:17:54;;;;;;;24.90;9.77;;;3.70;99.90;;;;;;4993383;28;20235;-68
2022/02/22 06:20:20;;;;;;;18.20;9.63;;;3.70;99.90;;;;;;4994548;28;20259;-69
2022/02/22 06:22:45;;;;;;;28.10;10.50;;;3.70;99.90;;;;;;4994514;28;20177;-67
2022/02/22 06:25:12;;;;;;;27.90;12.00;;;3.70;99.90;;;;;;4994425;28;20193;-67
2022/02/22 06:27:49;;;;;;;18.97;8.63;;;3.60;99.90;;;;;;4994921;28;20234;-67
2022/02/22 06:30:16;;;;;;;19.43;8.83;;;3.70;99.90;;;;;;4994210;28;20201;-67
2022/02/22 06:32:42;;;;;;;19.43;10.33;;;3.70;99.90;;;;;;4994221;28;20672;-67
2022/02/22 06:35:07;;;;;;;24.30;10.33;;;3.70;99.90;;;;;;4994119;28;20232;-67
2022/02/22 06:37:33;;;;;;;14.87;9.40;;;3.70;99.90;;;;;;4994428;28;20205;-67
2022/02/22 06:39:59;;;;;;;23.47;10.37;;;3.70;99.90;;;;;;4993940;28;20192;-67
2022/02/22 06:42:25;;;;;;;29.83;12.57;;;3.70;99.90;;;;;;4992915;28;20531;-67
2022/02/22 06:44:50;;;;;;;30.20;12.43;;;3.70;99.90;;;;;;4993727;28;20567;-67
2022/02/22 06:47:16;;;;;;;26.20;11.30;;;3.70;99.90;;;;;;4994344;28;20614;-67
2022/02/22 06:49:42;;;;;;;21.13;10.77;;;3.80;99.90;;;;;;4993968;28;20189;-67
2022/02/22 06:52:08;;;;;;;25.07;10.00;;;3.80;99.90;;;;;;4990703;28;20193;-67
2022/02/22 06:54:34;;;;;;;24.50;10.90;;;3.80;99.90;;;;;;4993718;28;20219;-67
2022/02/22 06:56:59;;;;;;;36.50;11.27;;;3.90;99.90;;;;;;4993397;28;20176;-66
2022/02/22 06:59:25;;;;;;;21.77;9.70;;;3.90;99.90;;;;;;4993948;28;20176;-66
2022/02/22 07:01:50;;;;;;;11.43;8.50;;;3.90;99.90;;;;;;4993746;28;20203;-67
2022/02/22 07:04:16;;;;;;;22.60;9.30;;;4.00;99.90;;;;;;4993571;28;20189;-67
2022/02/22 07:06:42;;;;;;;16.80;10.40;;;4.00;99.90;;;;;;4993376;28;20173;-67
2022/02/22 07:09:07;;;;;;;32.47;12.30;;;4.00;99.90;;;;;;4993484;28;20192;-68
2022/02/22 07:11:33;;;;;;;18.23;9.07;;;4.00;99.90;;;;;;4993561;28;20227;-67
2022/02/22 07:13:59;;;;;;;23.97;10.43;;;4.00;99.90;;;;;;4992915;28;20204;-67
2022/02/22 07:16:24;;;;;;;22.63;10.10;;;4.10;99.90;;;;;;4992308;28;20182;-67
2022/02/22 07:18:50;;;;;;;20.77;10.03;;;4.10;99.90;;;;;;4993034;28;20189;-67
2022/02/22 07:21:15;;;;;;;20.03;9.33;;;4.20;99.90;;;;;;4993352;28;20203;-67
2022/02/22 07:23:41;;;;;;;21.33;8.47;;;4.30;99.90;;;;;;4992864;28;20181;-67
2022/02/22 07:26:07;;;;;;;19.10;9.17;;;4.40;99.90;;;;;;4993347;28;20185;-67
2022/02/22 07:28:32;;;;;;;22.07;9.13;;;4.50;99.90;;;;;;4993230;28;20185;-67
2022/02/22 07:30:58;;;;;;;30.03;8.90;;;4.70;99.90;;;;;;4992944;28;20224;-67
2022/02/22 07:33:23;;;;;;;15.07;9.10;;;4.90;99.90;;;;;;4992668;28;20240;-67
2022/02/22 07:35:49;;;;;;;20.67;10.23;;;5.00;99.90;;;;;;4991804;28;20180;-67
2022/02/22 07:38:15;;;;;;;13.37;8.67;;;5.10;99.90;;;;;;4992809;28;20211;-67
2022/02/22 07:40:41;;;;;;;22.27;8.30;;;5.20;99.90;;;;;;4993232;28;20523;-67
2022/02/22 07:43:07;;;;;;;12.17;9.03;;;5.30;99.90;;;;;;4992263;28;20637;-67
2022/02/22 07:45:32;;;;;;;21.30;10.93;;;5.40;99.90;;;;;;4992969;28;20180;-66
2022/02/22 07:48:00;;;;;;;33.57;17.80;;;5.50;99.90;;;;;;4991236;28;20541;-67
2022/02/22 07:50:26;;;;;;;18.73;11.70;;;5.60;99.90;;;;;;4992816;28;20216;-67
2022/02/22 07:52:52;;;;;;;25.70;9.90;;;5.60;99.90;;;;;;4990871;28;20177;-66
2022/02/22 07:55:18;;;;;;;21.87;9.50;;;5.70;99.90;;;;;;4992860;28;20217;-66
2022/02/22 07:57:44;;;;;;;19.73;9.57;;;5.80;99.90;;;;;;4992787;28;20180;-66
2022/02/22 08:00:10;;;;;;;12.17;8.13;;;5.90;99.90;;;;;;4992307;28;20209;-66
2022/02/22 08:02:36;;;;;;;20.20;8.40;;;6.00;99.90;;;;;;4992621;28;20579;-67
2022/02/22 08:05:03;;;;;;;17.70;8.53;;;6.10;99.90;;;;;;4992269;28;20223;-67
2022/02/22 08:07:28;;;;;;;13.67;8.50;;;6.20;99.90;;;;;;4991612;28;20208;-67
2022/02/22 08:09:54;;;;;;;14.07;7.97;;;6.30;99.90;;;;;;4992250;28;20267;-67
2022/02/22 08:12:20;;;;;;;12.50;7.60;;;6.30;99.90;;;;;;4991107;28;20247;-67
2022/02/22 08:14:45;;;;;;;13.73;8.77;;;6.40;99.90;;;;;;4992147;28;20211;-67
2022/02/22 08:17:11;;;;;;;20.07;9.60;;;6.50;99.90;;;;;;4991098;28;20177;-67
2022/02/22 08:19:37;;;;;;;14.03;9.90;;;6.60;99.90;;;;;;4991748;28;20661;-67
2022/02/22 08:22:03;;;;;;;11.97;8.03;;;6.80;99.90;;;;;;4990558;28;20258;-67
2022/02/22 08:24:28;;;;;;;20.07;8.07;;;7.00;99.90;;;;;;4992304;28;20177;-67
2022/02/22 08:26:57;;;;;;;15.97;8.93;;;7.10;99.90;;;;;;4991850;28;20205;-67
2022/02/22 08:29:24;;;;;;;17.17;7.73;;;7.20;99.90;;;;;;4992664;28;20575;-67
2022/02/22 08:31:50;;;;;;;16.60;8.33;;;7.40;99.90;;;;;;4991210;28;20583;-67
2022/02/22 08:34:16;;;;;;;16.30;9.30;;;7.60;99.90;;;;;;4991991;28;20291;-66
2022/02/22 08:36:42;;;;;;;10.73;8.10;;;7.70;99.90;;;;;;4990867;28;20753;-66
2022/02/22 08:39:08;;;;;;;17.50;8.17;;;7.70;99.90;;;;;;4990730;28;20184;-66
2022/02/22 08:41:34;;;;;;;11.20;8.27;;;7.60;99.90;;;;;;4992018;28;20203;-67
2022/02/22 08:44:01;;;;;;;14.03;9.77;;;7.70;99.90;;;;;;4991742;28;20173;-66
2022/02/22 08:46:27;;;;;;;15.67;8.80;;;7.90;99.90;;;;;;4990736;28;20563;-66
2022/02/22 08:48:53;;;;;;;10.57;7.53;;;8.10;99.90;;;;;;4991609;28;20173;-66
2022/02/22 08:51:18;;;;;;;10.87;8.50;;;8.40;99.90;;;;;;4990535;28;20201;-66
2022/02/22 08:53:44;;;;;;;11.37;8.70;;;8.50;99.90;;;;;;4990395;28;20380;-66
2022/02/22 08:56:10;;;;;;;15.13;9.23;;;8.50;99.90;;;;;;4991640;28;20191;-66
2022/02/22 08:58:36;;;;;;;14.53;8.60;;;8.50;99.90;;;;;;4991919;28;20231;-66
2022/02/22 09:01:02;;;;;;;15.97;10.03;;;8.50;99.90;;;;;;4991627;28;20202;-67
2022/02/22 09:03:28;;;;;;;18.00;9.73;;;8.40;99.90;;;;;;4991737;28;20275;-66
2022/02/22 09:05:54;;;;;;;11.57;9.57;;;8.40;99.90;;;;;;4991843;28;20706;-66
2022/02/22 09:08:20;;;;;;;11.87;10.50;;;8.30;99.90;;;;;;4991417;28;20267;-67
2022/02/22 09:10:47;;;;;;;13.53;10.00;;;8.30;99.90;;;;;;4990507;28;20319;-66
2022/02/22 09:13:13;;;;;;;11.93;10.03;;;8.20;99.90;;;;;;4991055;28;20192;-67
2022/02/22 09:15:39;;;;;;;17.50;10.37;;;8.20;99.90;;;;;;4990663;28;20177;-66
2022/02/22 09:18:05;;;;;;;16.77;11.30;;;8.20;99.90;;;;;;4989876;28;20267;-67
2022/02/22 09:20:31;;;;;;;13.93;9.30;;;8.20;99.90;;;;;;4991803;28;20284;-66
2022/02/22 09:22:57;;;;;;;14.03;9.60;;;8.20;99.90;;;;;;4991170;28;20185;-67
2022/02/22 09:25:24;;;;;;;13.63;9.77;;;8.20;99.90;;;;;;4992069;28;20192;-66
2022/02/22 09:27:50;;;;;;;13.33;9.63;;;8.40;99.90;;;;;;4990247;28;20231;-66
2022/02/22 09:30:18;;;;;;;22.90;9.70;;;8.40;99.90;;;;;;4993639;28;20239;-66
2022/02/22 09:32:47;;;;;;;13.93;9.80;;;8.40;99.90;;;;;;4993765;28;20697;-66
2022/02/22 09:35:19;;;;;;;17.13;12.43;;;8.60;99.90;;;;;;4995309;28;20205;-66
2022/02/22 09:37:44;;;;;;;16.53;10.27;;;8.60;99.90;;;;;;4995040;28;20620;-67
2022/02/22 09:40:13;;;;;;;25.57;11.03;;;8.70;99.90;;;;;;4993712;28;20232;-67
2022/02/22 09:42:40;;;;;;;20.47;10.43;;;8.80;99.90;;;;;;4995097;28;20177;-67
2022/02/22 09:45:07;;;;;;;12.63;9.20;;;8.90;99.90;;;;;;4994822;28;20177;-67
2022/02/22 09:47:34;;;;;;;12.67;9.23;;;8.90;99.90;;;;;;4994995;28;20180;-67
2022/02/22 09:50:00;;;;;;;12.30;9.33;;;8.80;99.90;;;;;;4994925;28;20207;-67
2022/02/22 09:52:25;;;;;;;9.77;8.67;;;8.90;99.90;;;;;;4993673;28;20177;-67
2022/02/22 09:54:51;;;;;;;13.97;9.20;;;9.00;99.90;;;;;;4994945;28;20602;-67
2022/02/22 09:57:17;;;;;;;12.00;9.00;;;9.10;99.90;;;;;;4994571;28;20180;-67
2022/02/22 09:59:43;;;;;;;16.13;9.30;;;9.10;99.90;;;;;;4992640;28;20602;-67
2022/02/22 10:02:09;;;;;;;13.03;9.57;;;9.20;99.90;;;;;;4994601;28;20655;-67
2022/02/22 10:04:44;;;;;;;18.90;9.37;;;9.30;99.90;;;;;;4994925;28;20180;-67
2022/02/22 10:07:10;;;;;;;11.27;8.73;;;9.50;99.90;;;;;;4993436;28;20180;-67
2022/02/22 10:09:51;;;;;;;14.97;8.77;;;9.60;99.90;;;;;;4995195;28;20562;-67
2022/02/22 10:12:30;;;;;;;11.70;8.20;;;9.70;99.90;;;;;;4993956;28;20180;-67
2022/02/22 10:14:57;;;;;;;12.23;7.43;;;9.80;99.90;;;;;;4994694;28;20196;-67
2022/02/22 10:17:24;;;;;;;14.83;8.27;;;9.80;99.90;;;;;;4994561;28;20239;-67
2022/02/22 10:19:58;;;;;;;15.87;8.37;;;9.80;99.90;;;;;;4992262;28;20251;-67
2022/02/22 10:22:25;;;;;;;8.83;8.13;;;9.80;99.90;;;;;;4994374;28;20203;-67
2022/02/22 10:25:06;;;;;;;9.50;8.37;;;9.80;99.90;;;;;;4994629;28;20626;-67
2022/02/22 10:27:52;;;;;;;10.07;8.93;;;9.70;99.90;;;;;;4994588;28;20180;-67
2022/02/22 10:30:40;;;;;;;10.67;8.40;;;9.70;99.90;;;;;;4992071;28;20204;-67
2022/02/22 10:33:20;;;;;;;11.67;8.57;;;9.70;99.90;;;;;;4993655;28;20335;-67
2022/02/22 10:36:07;;;;;;;9.23;8.30;;;9.80;99.90;;;;;;4993276;28;20180;-68
2022/02/22 10:38:35;;;;;;;15.90;8.37;;;9.90;99.90;;;;;;4994350;28;20173;-67
2022/02/22 10:41:03;;;;;;;10.83;7.80;;;10.10;99.90;;;;;;4991994;28;20731;-68
2022/02/22 10:43:37;;;;;;;11.00;8.13;;;10.10;99.90;;;;;;4993671;28;20169;-67
2022/02/22 10:46:08;;;;;;;10.00;7.90;;;10.00;99.90;;;;;;4993669;28;20386;-67
2022/02/22 10:48:39;;;;;;;15.67;7.87;;;10.10;99.90;;;;;;4979409;28;21727;-67
2022/02/22 10:51:15;;;;;;;14.13;7.73;;;9.90;99.90;;;;;;4992535;28;20283;-67
2022/02/22 10:53:43;;;;;;;18.20;8.13;;;9.90;99.90;;;;;;4992933;28;20209;-67
2022/02/22 10:56:11;;;;;;;11.87;7.57;;;10.00;99.90;;;;;;4992028;28;20553;-67
2022/02/22 10:58:45;;;;;;;13.00;7.57;;;9.90;99.90;;;;;;4992676;28;20173;-67
2022/02/22 11:01:19;;;;;;;16.00;8.77;;;10.00;99.90;;;;;;4993432;28;20196;-67
2022/02/22 11:03:45;;;;;;;15.17;7.87;;;10.00;99.90;;;;;;4993516;28;20208;-67
2022/02/22 11:06:12;;;;;;;15.73;7.60;;;10.10;99.90;;;;;;4993253;28;20582;-67
2022/02/22 11:08:41;;;;;;;14.83;7.80;;;10.20;99.90;;;;;;4993737;28;20168;-67
2022/02/22 11:11:33;;;;;;;14.20;7.57;;;10.20;99.90;;;;;;4991725;28;20287;-67
2022/02/22 11:14:04;;;;;;;11.80;7.50;;;10.10;99.90;;;;;;4991898;28;20197;-67
2022/02/22 11:16:59;;;;;;;16.90;8.40;;;9.80;99.90;;;;;;4993320;28;20205;-66
2022/02/22 11:19:33;;;;;;;12.80;7.50;;;9.70;99.90;;;;;;4991264;28;20209;-67
2022/02/22 11:22:19;;;;;;;17.17;8.23;;;9.70;99.90;;;;;;4992758;28;20351;-67
2022/02/22 11:25:05;;;;;;;14.37;8.63;;;9.70;99.90;;;;;;4992220;28;20545;-67
2022/02/22 11:27:43;;;;;;;17.90;7.40;;;9.90;99.90;;;;;;4993183;28;20200;-67
2022/02/22 11:30:26;;;;;;;13.30;8.70;;;10.00;99.90;;;;;;4992975;28;20563;-67
2022/02/22 11:33:08;;;;;;;17.07;8.77;;;10.00;99.90;;;;;;4973434;28;20182;-67
2022/02/22 11:35:52;;;;;;;10.37;7.87;;;10.10;99.90;;;;;;4976635;28;20184;-67
2022/02/22 11:38:18;;;;;;;17.27;8.30;;;10.10;99.90;;;;;;4992213;28;20517;-67
2022/02/22 11:40:47;;;;;;;14.27;8.13;;;10.10;99.90;;;;;;4992857;28;20208;-68
2022/02/22 11:43:15;;;;;;;31.80;8.33;;;10.10;99.90;;;;;;4992471;28;20188;-67
2022/02/22 11:45:43;;;;;;;16.17;7.83;;;10.10;99.90;;;;;;4991484;28;20553;-67
2022/02/22 11:48:16;;;;;;;9.27;7.33;;;10.10;99.90;;;;;;4992893;28;20267;-67
2022/02/22 11:50:44;;;;;;;15.20;8.40;;;10.10;99.90;;;;;;4991701;28;20201;-67
2022/02/22 11:53:19;;;;;;;15.87;7.93;;;10.10;99.90;;;;;;4990146;28;20189;-67
2022/02/22 11:55:46;;;;;;;13.30;7.30;;;10.20;99.90;;;;;;4991531;28;20199;-67
2022/02/22 11:58:16;;;;;;;10.60;7.73;;;10.40;99.90;;;;;;4992517;28;20180;-67
2022/02/22 12:00:42;;;;;;;11.97;7.23;;;10.50;99.90;;;;;;4991428;28;20619;-67
2022/02/22 12:03:12;;;;;;;12.53;7.87;;;10.60;99.90;;;;;;4991969;28;20523;-67
2022/02/22 12:05:43;;;;;;;14.97;8.07;;;10.70;99.90;;;;;;4992647;28;20863;-67
2022/02/22 12:08:18;;;;;;;15.73;7.90;;;10.70;99.90;;;;;;4992207;28;20212;-67
2022/02/22 12:10:45;;;;;;;12.13;7.27;;;10.50;99.90;;;;;;4992480;28;20696;-67
2022/02/22 12:13:13;;;;;;;17.13;9.43;;;10.30;99.90;;;;;;4990550;28;20224;-67
2022/02/22 12:15:40;;;;;;;17.90;7.67;;;10.30;99.90;;;;;;4991253;28;20212;-67
2022/02/22 12:18:13;;;;;;;15.27;8.23;;;10.30;99.90;;;;;;4991677;28;20198;-67
2022/02/22 12:20:39;;;;;;;15.47;8.87;;;10.30;99.90;;;;;;4992628;28;20201;-67
2022/02/22 12:23:05;;;;;;;12.83;8.43;;;10.30;99.90;;;;;;4991521;28;20243;-67
2022/02/22 12:25:31;;;;;;;14.37;8.73;;;10.30;99.90;;;;;;4992750;28;20173;-66
2022/02/22 12:28:04;;;;;;;11.20;7.50;;;10.30;99.90;;;;;;4991846;28;20639;-67
2022/02/22 12:30:36;;;;;;;16.60;9.37;;;10.30;99.90;;;;;;4991979;28;20576;-67
2022/02/22 12:33:02;;;;;;;13.00;7.70;;;10.20;99.90;;;;;;4991522;28;20181;-67
2022/02/22 12:35:39;;;;;;;11.40;7.50;;;9.90;99.90;;;;;;4990691;28;20577;-67
2022/02/22 12:38:25;;;;;;;10.13;6.70;;;9.60;99.90;;;;;;4992040;28;20207;-66
2022/02/22 12:40:52;;;;;;;11.10;7.73;;;9.30;99.90;;;;;;4991780;28;20196;-68
2022/02/22 12:43:19;;;;;;;17.33;7.67;;;9.20;99.90;;;;;;4991856;28;20173;-68
2022/02/22 12:45:49;;;;;;;16.83;7.63;;;9.00;99.90;;;;;;4990048;28;20646;-68